sensor_id;sensor_type;location;lat;lon;timestamp;temperature;humidity
15564;DHT22;7883;52.554;13.364;2023-05-10T00:02:03;14.10;99.90
15564;DHT22;7883;52.554;13.364;2023-05-10T00:04:30;14.10;99.90
15564;DHT22;7883;52.554;13.364;2023-05-10T00:06:57;14.00;99.90
15564;DHT22;7883;52.554;13.364;2023-05-10T00:09:24;14.10;99.90
15564;DHT22;7883;52.554;13.364;2023-05-10T00:11:52;14.10;99.90
15564;DHT22;7883;52.554;13.364;2023-05-10T00:14:19;14.00;99.90
15564;DHT22;7883;52.554;13.364;2023-05-10T00:16:47;13.90;99.90
15564;DHT22;7883;52.554;13.364;2023-05-10T00:19:14;13.90;99.90
15564;DHT22;7883;52.554;13.364;2023-05-10T00:21:41;13.90;99.90
15564;DHT22;7883;52.554;13.364;2023-05-10T00:24:08;13.80;99.90
15564;DHT22;7883;52.554;13.364;2023-05-10T00:26:35;13.80;99.90
15564;DHT22;7883;52.554;13.364;2023-05-10T00:29:01;13.90;99.90
15564;DHT22;7883;52.554;13.364;2023-05-10T00:31:29;13.80;99.90
15564;DHT22;7883;52.554;13.364;2023-05-10T00:33:57;13.70;99.90
15564;DHT22;7883;52.554;13.364;2023-05-10T00:36:26;13.70;99.90
15564;DHT22;7883;52.554;13.364;2023-05-10T00:38:53;13.60;99.90
15564;DHT22;7883;52.554;13.364;2023-05-10T00:41:20;13.70;99.90
15564;DHT22;7883;52.554;13.364;2023-05-10T00:43:48;13.50;99.90
15564;DHT22;7883;52.554;13.364;2023-05-10T00:46:16;13.50;99.90
15564;DHT22;7883;52.554;13.364;2023-05-10T00:48:44;13.60;99.90
15564;DHT22;7883;52.554;13.364;2023-05-10T00:51:18;13.70;99.90
15564;DHT22;7883;52.554;13.364;2023-05-10T00:53:45;13.60;99.90
15564;DHT22;7883;52.554;13.364;2023-05-10T00:56:13;13.60;99.90
15564;DHT22;7883;52.554;13.364;2023-05-10T00:58:41;13.60;99.90
15564;DHT22;7883;52.554;13.364;2023-05-10T01:01:08;13.60;99.90
15564;DHT22;7883;52.554;13.364;2023-05-10T01:03:40;13.60;99.90
15564;DHT22;7883;52.554;13.364;2023-05-10T01:06:07;13.60;99.90
15564;DHT22;7883;52.554;13.364;2023-05-10T01:08:37;13.50;99.90
15564;DHT22;7883;52.554;13.364;2023-05-10T01:11:04;13.30;99.90
15564;DHT22;7883;52.554;13.364;2023-05-10T01:13:33;13.30;99.90
15564;DHT22;7883;52.554;13.364;2023-05-10T01:16:12;13.30;99.90
15564;DHT22;7883;52.554;13.364;2023-05-10T01:18:40;13.30;99.90
15564;DHT22;7883;52.554;13.364;2023-05-10T01:21:17;13.40;99.90
15564;DHT22;7883;52.554;13.364;2023-05-10T01:24:14;13.30;99.90
15564;DHT22;7883;52.554;13.364;2023-05-10T01:27:11;13.20;99.90
15564;DHT22;7883;52.554;13.364;2023-05-10T01:30:01;13.10;99.90
15564;DHT22;7883;52.554;13.364;2023-05-10T01:32:36;13.10;99.90
15564;DHT22;7883;52.554;13.364;2023-05-10T01:35:08;13.20;99.90
15564;DHT22;7883;52.554;13.364;2023-05-10T01:37:42;13.20;99.90
15564;DHT22;7883;52.554;13.364;2023-05-10T01:40:19;13.20;99.90
15564;DHT22;7883;52.554;13.364;2023-05-10T01:42:51;13.20;99.90
15564;DHT22;7883;52.554;13.364;2023-05-10T01:45:24;13.00;99.90
15564;DHT22;7883;52.554;13.364;2023-05-10T01:48:02;13.00;99.90
15564;DHT22;7883;52.554;13.364;2023-05-10T01:50:31;13.00;99.90
15564;DHT22;7883;52.554;13.364;2023-05-10T01:53:01;13.10;99.90
15564;DHT22;7883;52.554;13.364;2023-05-10T01:55:32;13.00;99.90
15564;DHT22;7883;52.554;13.364;2023-05-10T01:58:05;13.00;99.90
15564;DHT22;7883;52.554;13.364;2023-05-10T02:00:34;13.00;99.90
15564;DHT22;7883;52.554;13.364;2023-05-10T02:03:06;13.00;99.90
15564;DHT22;7883;52.554;13.364;2023-05-10T02:05:35;13.00;99.90
15564;DHT22;7883;52.554;13.364;2023-05-10T02:08:06;13.00;99.90
15564;DHT22;7883;52.554;13.364;2023-05-10T02:10:34;13.00;99.90
15564;DHT22;7883;52.554;13.364;2023-05-10T02:13:02;12.90;99.90
15564;DHT22;7883;52.554;13.364;2023-05-10T02:15:30;12.90;99.90
15564;DHT22;7883;52.554;13.364;2023-05-10T02:17:58;12.90;99.90
15564;DHT22;7883;52.554;13.364;2023-05-10T02:20:28;12.90;99.90
15564;DHT22;7883;52.554;13.364;2023-05-10T02:22:58;12.90;99.90
15564;DHT22;7883;52.554;13.364;2023-05-10T02:25:27;12.70;99.90
15564;DHT22;7883;52.554;13.364;2023-05-10T02:27:56;12.50;99.90
15564;DHT22;7883;52.554;13.364;2023-05-10T02:30:24;12.40;99.90
15564;DHT22;7883;52.554;13.364;2023-05-10T02:32:52;12.60;99.90
15564;DHT22;7883;52.554;13.364;2023-05-10T02:35:21;12.70;99.90
15564;DHT22;7883;52.554;13.364;2023-05-10T02:37:50;12.40;99.90
15564;DHT22;7883;52.554;13.364;2023-05-10T02:40:19;12.30;99.90
15564;DHT22;7883;52.554;13.364;2023-05-10T02:42:48;12.40;99.90
15564;DHT22;7883;52.554;13.364;2023-05-10T02:45:21;12.60;99.90
15564;DHT22;7883;52.554;13.364;2023-05-10T02:47:52;12.50;99.90
15564;DHT22;7883;52.554;13.364;2023-05-10T02:50:19;12.40;99.90
15564;DHT22;7883;52.554;13.364;2023-05-10T02:52:49;12.40;99.90
15564;DHT22;7883;52.554;13.364;2023-05-10T02:55:22;12.40;99.90
15564;DHT22;7883;52.554;13.364;2023-05-10T02:57:54;12.20;99.90
15564;DHT22;7883;52.554;13.364;2023-05-10T03:00:24;12.30;99.90
15564;DHT22;7883;52.554;13.364;2023-05-10T03:02:51;12.50;99.90
15564;DHT22;7883;52.554;13.364;2023-05-10T03:05:19;12.50;99.90
15564;DHT22;7883;52.554;13.364;2023-05-10T03:07:46;12.40;99.90
15564;DHT22;7883;52.554;13.364;2023-05-10T03:10:14;12.40;99.90
15564;DHT22;7883;52.554;13.364;2023-05-10T03:12:55;12.40;99.90
15564;DHT22;7883;52.554;13.364;2023-05-10T03:15:31;12.50;99.90
15564;DHT22;7883;52.554;13.364;2023-05-10T03:18:06;12.50;99.90
15564;DHT22;7883;52.554;13.364;2023-05-10T03:20:36;12.50;99.90
15564;DHT22;7883;52.554;13.364;2023-05-10T03:23:12;12.40;99.90
15564;DHT22;7883;52.554;13.364;2023-05-10T03:25:41;12.40;99.90
15564;DHT22;7883;52.554;13.364;2023-05-10T03:28:15;12.40;99.90
15564;DHT22;7883;52.554;13.364;2023-05-10T03:30:43;12.40;99.90
15564;DHT22;7883;52.554;13.364;2023-05-10T03:33:11;12.50;99.90
15564;DHT22;7883;52.554;13.364;2023-05-10T03:35:39;12.40;99.90
15564;DHT22;7883;52.554;13.364;2023-05-10T03:38:06;12.20;99.90
15564;DHT22;7883;52.554;13.364;2023-05-10T03:40:33;12.10;99.90
15564;DHT22;7883;52.554;13.364;2023-05-10T03:43:00;12.00;99.90
15564;DHT22;7883;52.554;13.364;2023-05-10T03:45:29;12.10;99.90
15564;DHT22;7883;52.554;13.364;2023-05-10T03:47:57;12.10;99.90
15564;DHT22;7883;52.554;13.364;2023-05-10T03:50:24;12.20;99.90
15564;DHT22;7883;52.554;13.364;2023-05-10T03:52:52;12.10;99.90
15564;DHT22;7883;52.554;13.364;2023-05-10T03:55:19;12.10;99.90
15564;DHT22;7883;52.554;13.364;2023-05-10T03:57:46;12.00;99.90
15564;DHT22;7883;52.554;13.364;2023-05-10T04:00:15;12.20;99.90
15564;DHT22;7883;52.554;13.364;2023-05-10T04:02:44;12.10;99.90
15564;DHT22;7883;52.554;13.364;2023-05-10T04:05:11;12.10;99.90
15564;DHT22;7883;52.554;13.364;2023-05-10T04:07:38;12.20;99.90
15564;DHT22;7883;52.554;13.364;2023-05-10T04:10:06;12.30;99.90
15564;DHT22;7883;52.554;13.364;2023-05-10T04:12:33;12.30;99.90
15564;DHT22;7883;52.554;13.364;2023-05-10T04:15:07;12.20;99.90
15564;DHT22;7883;52.554;13.364;2023-05-10T04:17:34;12.30;99.90
15564;DHT22;7883;52.554;13.364;2023-05-10T04:20:03;12.30;99.90
15564;DHT22;7883;52.554;13.364;2023-05-10T04:22:30;12.20;99.90
15564;DHT22;7883;52.554;13.364;2023-05-10T04:24:58;12.20;99.90
15564;DHT22;7883;52.554;13.364;2023-05-10T04:27:25;12.30;99.90
15564;DHT22;7883;52.554;13.364;2023-05-10T04:29:52;12.40;99.90
15564;DHT22;7883;52.554;13.364;2023-05-10T04:32:19;12.50;99.90
15564;DHT22;7883;52.554;13.364;2023-05-10T04:34:46;12.40;99.90
15564;DHT22;7883;52.554;13.364;2023-05-10T04:37:15;12.30;99.90
15564;DHT22;7883;52.554;13.364;2023-05-10T04:39:44;12.50;99.90
15564;DHT22;7883;52.554;13.364;2023-05-10T04:42:11;14.50;99.90
15564;DHT22;7883;52.554;13.364;2023-05-10T04:44:40;17.00;99.90
15564;DHT22;7883;52.554;13.364;2023-05-10T04:47:07;18.40;99.90
15564;DHT22;7883;52.554;13.364;2023-05-10T04:49:34;19.30;99.90
15564;DHT22;7883;52.554;13.364;2023-05-10T04:52:01;19.40;99.90
15564;DHT22;7883;52.554;13.364;2023-05-10T04:54:29;19.80;99.90
15564;DHT22;7883;52.554;13.364;2023-05-10T04:56:56;20.30;99.90
15564;DHT22;7883;52.554;13.364;2023-05-10T04:59:26;20.70;99.20
15564;DHT22;7883;52.554;13.364;2023-05-10T05:01:53;21.00;99.40
15564;DHT22;7883;52.554;13.364;2023-05-10T05:04:20;20.80;99.20
15564;DHT22;7883;52.554;13.364;2023-05-10T05:06:48;21.80;98.50
15564;DHT22;7883;52.554;13.364;2023-05-10T05:09:15;21.90;97.90
15564;DHT22;7883;52.554;13.364;2023-05-10T05:11:44;22.50;97.10
15564;DHT22;7883;52.554;13.364;2023-05-10T05:14:12;22.40;96.80
15564;DHT22;7883;52.554;13.364;2023-05-10T05:16:39;22.80;96.80
15564;DHT22;7883;52.554;13.364;2023-05-10T05:19:06;23.80;96.10
15564;DHT22;7883;52.554;13.364;2023-05-10T05:21:35;23.90;95.20
15564;DHT22;7883;52.554;13.364;2023-05-10T05:24:02;23.40;95.30
15564;DHT22;7883;52.554;13.364;2023-05-10T05:26:29;22.00;96.00
15564;DHT22;7883;52.554;13.364;2023-05-10T05:28:57;18.90;99.00
15564;DHT22;7883;52.554;13.364;2023-05-10T05:31:24;17.00;99.90
15564;DHT22;7883;52.554;13.364;2023-05-10T05:33:51;16.40;99.90
15564;DHT22;7883;52.554;13.364;2023-05-10T05:36:18;16.00;99.90
15564;DHT22;7883;52.554;13.364;2023-05-10T05:38:45;15.40;99.90
15564;DHT22;7883;52.554;13.364;2023-05-10T05:41:12;15.00;99.90
15564;DHT22;7883;52.554;13.364;2023-05-10T05:43:39;14.90;99.90
15564;DHT22;7883;52.554;13.364;2023-05-10T05:46:07;14.80;99.90
15564;DHT22;7883;52.554;13.364;2023-05-10T05:48:36;14.70;99.90
15564;DHT22;7883;52.554;13.364;2023-05-10T05:51:05;14.70;99.90
15564;DHT22;7883;52.554;13.364;2023-05-10T05:53:32;14.70;99.90
15564;DHT22;7883;52.554;13.364;2023-05-10T05:55:59;14.70;99.90
15564;DHT22;7883;52.554;13.364;2023-05-10T05:58:26;14.60;99.90
15564;DHT22;7883;52.554;13.364;2023-05-10T06:00:53;14.60;99.90
15564;DHT22;7883;52.554;13.364;2023-05-10T06:03:21;14.70;99.90
15564;DHT22;7883;52.554;13.364;2023-05-10T06:05:49;14.70;99.90
15564;DHT22;7883;52.554;13.364;2023-05-10T06:08:15;14.70;99.90
15564;DHT22;7883;52.554;13.364;2023-05-10T06:10:46;14.70;99.90
15564;DHT22;7883;52.554;13.364;2023-05-10T06:13:14;14.80;99.90
15564;DHT22;7883;52.554;13.364;2023-05-10T06:15:41;14.80;99.90
15564;DHT22;7883;52.554;13.364;2023-05-10T06:18:08;14.90;99.90
15564;DHT22;7883;52.554;13.364;2023-05-10T06:20:36;14.90;99.90
15564;DHT22;7883;52.554;13.364;2023-05-10T06:23:03;14.90;99.90
15564;DHT22;7883;52.554;13.364;2023-05-10T06:25:30;14.90;99.90
15564;DHT22;7883;52.554;13.364;2023-05-10T06:27:57;15.00;99.90
15564;DHT22;7883;52.554;13.364;2023-05-10T06:30:25;15.10;99.90
15564;DHT22;7883;52.554;13.364;2023-05-10T06:32:54;15.10;99.90
15564;DHT22;7883;52.554;13.364;2023-05-10T06:35:22;15.10;99.90
15564;DHT22;7883;52.554;13.364;2023-05-10T06:37:50;15.20;99.90
15564;DHT22;7883;52.554;13.364;2023-05-10T06:40:18;15.30;99.90
15564;DHT22;7883;52.554;13.364;2023-05-10T06:42:45;15.30;99.90
15564;DHT22;7883;52.554;13.364;2023-05-10T06:45:12;15.30;99.90
15564;DHT22;7883;52.554;13.364;2023-05-10T06:47:40;15.30;99.90
15564;DHT22;7883;52.554;13.364;2023-05-10T06:50:07;15.30;99.90
15564;DHT22;7883;52.554;13.364;2023-05-10T06:52:35;15.30;99.90
15564;DHT22;7883;52.554;13.364;2023-05-10T06:55:04;15.30;99.90
15564;DHT22;7883;52.554;13.364;2023-05-10T06:57:31;15.40;99.90
15564;DHT22;7883;52.554;13.364;2023-05-10T06:59:58;15.40;99.90
15564;DHT22;7883;52.554;13.364;2023-05-10T07:02:25;15.50;99.90
15564;DHT22;7883;52.554;13.364;2023-05-10T07:04:52;15.50;99.90
15564;DHT22;7883;52.554;13.364;2023-05-10T07:07:19;15.50;99.90
15564;DHT22;7883;52.554;13.364;2023-05-10T07:09:46;15.60;99.90
15564;DHT22;7883;52.554;13.364;2023-05-10T07:12:16;15.60;99.90
15564;DHT22;7883;52.554;13.364;2023-05-10T07:14:43;15.70;99.90
15564;DHT22;7883;52.554;13.364;2023-05-10T07:17:10;15.70;99.90
15564;DHT22;7883;52.554;13.364;2023-05-10T07:19:37;15.70;99.90
15564;DHT22;7883;52.554;13.364;2023-05-10T07:22:04;15.80;99.90
15564;DHT22;7883;52.554;13.364;2023-05-10T07:24:32;15.80;99.90
15564;DHT22;7883;52.554;13.364;2023-05-10T07:26:58;15.90;99.90
15564;DHT22;7883;52.554;13.364;2023-05-10T07:29:27;16.00;99.90
15564;DHT22;7883;52.554;13.364;2023-05-10T07:31:54;16.00;99.90
15564;DHT22;7883;52.554;13.364;2023-05-10T07:34:21;16.10;99.90
15564;DHT22;7883;52.554;13.364;2023-05-10T07:36:48;16.20;99.90
15564;DHT22;7883;52.554;13.364;2023-05-10T07:39:15;16.20;99.90
15564;DHT22;7883;52.554;13.364;2023-05-10T07:41:42;16.30;99.90
15564;DHT22;7883;52.554;13.364;2023-05-10T07:44:09;16.30;99.90
15564;DHT22;7883;52.554;13.364;2023-05-10T07:46:37;16.30;99.90
15564;DHT22;7883;52.554;13.364;2023-05-10T07:49:04;16.40;99.90
15564;DHT22;7883;52.554;13.364;2023-05-10T07:51:31;16.50;99.90
15564;DHT22;7883;52.554;13.364;2023-05-10T07:53:58;16.50;99.90
15564;DHT22;7883;52.554;13.364;2023-05-10T07:56:26;16.60;99.90
15564;DHT22;7883;52.554;13.364;2023-05-10T07:58:55;16.60;99.90
15564;DHT22;7883;52.554;13.364;2023-05-10T08:01:22;16.60;99.90
15564;DHT22;7883;52.554;13.364;2023-05-10T08:03:51;16.60;99.90
15564;DHT22;7883;52.554;13.364;2023-05-10T08:06:19;16.80;99.90
15564;DHT22;7883;52.554;13.364;2023-05-10T08:08:47;16.70;99.90
15564;DHT22;7883;52.554;13.364;2023-05-10T08:11:16;16.80;99.90
15564;DHT22;7883;52.554;13.364;2023-05-10T08:13:43;16.80;99.90
15564;DHT22;7883;52.554;13.364;2023-05-10T08:16:10;17.00;99.90
15564;DHT22;7883;52.554;13.364;2023-05-10T08:18:38;17.00;99.90
15564;DHT22;7883;52.554;13.364;2023-05-10T08:21:06;17.00;99.90
15564;DHT22;7883;52.554;13.364;2023-05-10T08:23:33;17.20;99.90
15564;DHT22;7883;52.554;13.364;2023-05-10T08:26:01;17.20;99.90
15564;DHT22;7883;52.554;13.364;2023-05-10T08:28:28;17.30;99.90
15564;DHT22;7883;52.554;13.364;2023-05-10T08:30:55;17.30;99.90
15564;DHT22;7883;52.554;13.364;2023-05-10T08:33:22;17.30;99.90
15564;DHT22;7883;52.554;13.364;2023-05-10T08:35:49;17.30;99.90
15564;DHT22;7883;52.554;13.364;2023-05-10T08:38:17;17.30;99.90
15564;DHT22;7883;52.554;13.364;2023-05-10T08:40:45;17.40;99.90
15564;DHT22;7883;52.554;13.364;2023-05-10T08:43:13;17.40;99.90
15564;DHT22;7883;52.554;13.364;2023-05-10T08:45:41;17.40;99.90
15564;DHT22;7883;52.554;13.364;2023-05-10T08:48:09;17.50;99.90
15564;DHT22;7883;52.554;13.364;2023-05-10T08:50:37;17.50;99.90
15564;DHT22;7883;52.554;13.364;2023-05-10T08:53:09;17.60;99.90
15564;DHT22;7883;52.554;13.364;2023-05-10T08:55:38;17.60;99.90
15564;DHT22;7883;52.554;13.364;2023-05-10T08:58:08;17.70;99.90
15564;DHT22;7883;52.554;13.364;2023-05-10T09:00:36;17.80;99.90
15564;DHT22;7883;52.554;13.364;2023-05-10T09:03:05;17.80;99.90
15564;DHT22;7883;52.554;13.364;2023-05-10T09:05:32;17.90;99.90
15564;DHT22;7883;52.554;13.364;2023-05-10T09:07:59;17.90;99.90
15564;DHT22;7883;52.554;13.364;2023-05-10T09:10:27;17.90;99.90
15564;DHT22;7883;52.554;13.364;2023-05-10T09:12:57;18.00;99.90
15564;DHT22;7883;52.554;13.364;2023-05-10T09:15:24;18.10;99.90
15564;DHT22;7883;52.554;13.364;2023-05-10T09:17:51;18.20;99.90
15564;DHT22;7883;52.554;13.364;2023-05-10T09:20:18;18.20;99.90
15564;DHT22;7883;52.554;13.364;2023-05-10T09:22:45;18.30;99.90
15564;DHT22;7883;52.554;13.364;2023-05-10T09:25:14;18.30;99.90
15564;DHT22;7883;52.554;13.364;2023-05-10T09:27:45;18.40;99.90
15564;DHT22;7883;52.554;13.364;2023-05-10T09:30:17;18.50;99.90
15564;DHT22;7883;52.554;13.364;2023-05-10T09:32:47;18.60;99.90
15564;DHT22;7883;52.554;13.364;2023-05-10T09:35:18;18.70;99.90
15564;DHT22;7883;52.554;13.364;2023-05-10T09:37:46;18.70;99.90
15564;DHT22;7883;52.554;13.364;2023-05-10T09:40:16;18.70;99.90
15564;DHT22;7883;52.554;13.364;2023-05-10T09:42:51;18.60;99.90
15564;DHT22;7883;52.554;13.364;2023-05-10T09:45:20;18.70;99.90
15564;DHT22;7883;52.554;13.364;2023-05-10T09:47:47;18.70;99.90
15564;DHT22;7883;52.554;13.364;2023-05-10T09:50:14;18.80;99.90
15564;DHT22;7883;52.554;13.364;2023-05-10T09:52:48;18.90;99.90
15564;DHT22;7883;52.554;13.364;2023-05-10T09:55:17;19.00;99.90
15564;DHT22;7883;52.554;13.364;2023-05-10T09:57:44;18.90;99.90
15564;DHT22;7883;52.554;13.364;2023-05-10T10:00:17;18.90;99.90
15564;DHT22;7883;52.554;13.364;2023-05-10T10:02:48;18.90;99.90
15564;DHT22;7883;52.554;13.364;2023-05-10T10:05:15;19.10;99.90
15564;DHT22;7883;52.554;13.364;2023-05-10T10:07:42;19.20;99.90
15564;DHT22;7883;52.554;13.364;2023-05-10T10:10:10;19.30;99.90
15564;DHT22;7883;52.554;13.364;2023-05-10T10:12:39;19.40;99.90
15564;DHT22;7883;52.554;13.364;2023-05-10T10:15:08;19.40;99.90
15564;DHT22;7883;52.554;13.364;2023-05-10T10:17:36;19.40;99.90
15564;DHT22;7883;52.554;13.364;2023-05-10T10:20:06;19.40;99.90
15564;DHT22;7883;52.554;13.364;2023-05-10T10:22:33;19.40;99.90
15564;DHT22;7883;52.554;13.364;2023-05-10T10:25:01;19.40;99.90
15564;DHT22;7883;52.554;13.364;2023-05-10T10:27:33;19.30;99.90
15564;DHT22;7883;52.554;13.364;2023-05-10T10:30:06;19.40;99.90
15564;DHT22;7883;52.554;13.364;2023-05-10T10:32:47;19.60;99.90
15564;DHT22;7883;52.554;13.364;2023-05-10T10:35:20;19.60;99.90
15564;DHT22;7883;52.554;13.364;2023-05-10T10:37:48;19.80;99.90
15564;DHT22;7883;52.554;13.364;2023-05-10T10:40:24;19.90;99.90
15564;DHT22;7883;52.554;13.364;2023-05-10T10:42:51;20.00;99.90
15564;DHT22;7883;52.554;13.364;2023-05-10T10:45:20;19.80;99.90
15564;DHT22;7883;52.554;13.364;2023-05-10T10:47:48;19.90;99.90
15564;DHT22;7883;52.554;13.364;2023-05-10T10:50:15;20.00;99.90
15564;DHT22;7883;52.554;13.364;2023-05-10T10:52:44;20.00;99.90
15564;DHT22;7883;52.554;13.364;2023-05-10T10:55:14;20.00;99.90
15564;DHT22;7883;52.554;13.364;2023-05-10T10:57:46;20.10;99.90
15564;DHT22;7883;52.554;13.364;2023-05-10T11:00:25;20.10;99.90
15564;DHT22;7883;52.554;13.364;2023-05-10T11:02:54;20.20;99.90
15564;DHT22;7883;52.554;13.364;2023-05-10T11:08:17;20.20;99.90
15564;DHT22;7883;52.554;13.364;2023-05-10T11:11:04;20.20;99.90
15564;DHT22;7883;52.554;13.364;2023-05-10T11:13:38;20.30;99.90
15564;DHT22;7883;52.554;13.364;2023-05-10T11:16:26;20.40;99.90
15564;DHT22;7883;52.554;13.364;2023-05-10T11:19:01;20.50;99.90
15564;DHT22;7883;52.554;13.364;2023-05-10T11:21:28;20.50;99.90
15564;DHT22;7883;52.554;13.364;2023-05-10T11:23:57;20.50;99.90
15564;DHT22;7883;52.554;13.364;2023-05-10T11:26:29;20.60;99.90
15564;DHT22;7883;52.554;13.364;2023-05-10T11:28:56;20.70;99.90
15564;DHT22;7883;52.554;13.364;2023-05-10T11:31:24;20.80;99.90
15564;DHT22;7883;52.554;13.364;2023-05-10T11:33:53;20.90;99.90
15564;DHT22;7883;52.554;13.364;2023-05-10T11:36:24;21.00;99.90
15564;DHT22;7883;52.554;13.364;2023-05-10T11:38:52;21.10;99.90
15564;DHT22;7883;52.554;13.364;2023-05-10T11:41:21;21.10;99.90
15564;DHT22;7883;52.554;13.364;2023-05-10T11:43:50;21.00;99.90
15564;DHT22;7883;52.554;13.364;2023-05-10T11:46:18;21.10;99.90
15564;DHT22;7883;52.554;13.364;2023-05-10T11:48:47;21.10;99.90
15564;DHT22;7883;52.554;13.364;2023-05-10T11:51:20;21.10;99.90
15564;DHT22;7883;52.554;13.364;2023-05-10T11:53:47;21.10;99.90
15564;DHT22;7883;52.554;13.364;2023-05-10T11:56:15;21.20;99.90
15564;DHT22;7883;52.554;13.364;2023-05-10T11:58:44;21.30;99.90
15564;DHT22;7883;52.554;13.364;2023-05-10T12:01:12;21.20;99.90
15564;DHT22;7883;52.554;13.364;2023-05-10T12:03:40;21.30;99.90
15564;DHT22;7883;52.554;13.364;2023-05-10T12:06:07;21.40;99.90
15564;DHT22;7883;52.554;13.364;2023-05-10T12:08:34;21.50;99.90
15564;DHT22;7883;52.554;13.364;2023-05-10T12:11:05;21.50;99.90
15564;DHT22;7883;52.554;13.364;2023-05-10T12:13:37;21.50;99.90
15564;DHT22;7883;52.554;13.364;2023-05-10T12:16:15;21.40;99.90
15564;DHT22;7883;52.554;13.364;2023-05-10T12:18:42;21.50;99.90
15564;DHT22;7883;52.554;13.364;2023-05-10T12:21:10;21.40;99.90
15564;DHT22;7883;52.554;13.364;2023-05-10T12:23:37;21.50;99.90
15564;DHT22;7883;52.554;13.364;2023-05-10T12:26:04;21.50;99.90
15564;DHT22;7883;52.554;13.364;2023-05-10T12:28:32;21.60;99.90
15564;DHT22;7883;52.554;13.364;2023-05-10T12:30:59;21.60;99.90
15564;DHT22;7883;52.554;13.364;2023-05-10T12:33:35;21.60;99.90
15564;DHT22;7883;52.554;13.364;2023-05-10T12:36:04;21.70;99.90
15564;DHT22;7883;52.554;13.364;2023-05-10T12:38:33;21.70;99.40
15564;DHT22;7883;52.554;13.364;2023-05-10T12:41:01;21.70;99.20
15564;DHT22;7883;52.554;13.364;2023-05-10T12:43:29;21.80;99.40
15564;DHT22;7883;52.554;13.364;2023-05-10T12:45:56;21.90;99.40
15564;DHT22;7883;52.554;13.364;2023-05-10T12:48:23;21.90;99.80
15564;DHT22;7883;52.554;13.364;2023-05-10T12:50:52;22.00;99.90
15564;DHT22;7883;52.554;13.364;2023-05-10T12:53:19;21.90;99.70
15564;DHT22;7883;52.554;13.364;2023-05-10T12:55:45;21.80;99.90
15564;DHT22;7883;52.554;13.364;2023-05-10T12:58:13;21.90;99.90
15564;DHT22;7883;52.554;13.364;2023-05-10T13:00:40;21.90;99.90
15564;DHT22;7883;52.554;13.364;2023-05-10T13:03:07;21.90;99.90
15564;DHT22;7883;52.554;13.364;2023-05-10T13:05:34;22.00;99.90
15564;DHT22;7883;52.554;13.364;2023-05-10T13:08:02;22.00;99.90
15564;DHT22;7883;52.554;13.364;2023-05-10T13:10:30;22.20;99.90
15564;DHT22;7883;52.554;13.364;2023-05-10T13:12:58;22.20;99.80
15564;DHT22;7883;52.554;13.364;2023-05-10T13:15:25;22.20;99.20
15564;DHT22;7883;52.554;13.364;2023-05-10T13:17:54;22.20;99.30
15564;DHT22;7883;52.554;13.364;2023-05-10T13:20:22;22.20;98.30
15564;DHT22;7883;52.554;13.364;2023-05-10T13:22:50;22.20;98.50
15564;DHT22;7883;52.554;13.364;2023-05-10T13:25:18;22.20;98.60
15564;DHT22;7883;52.554;13.364;2023-05-10T13:27:45;22.40;98.70
15564;DHT22;7883;52.554;13.364;2023-05-10T13:30:12;22.30;99.00
15564;DHT22;7883;52.554;13.364;2023-05-10T13:32:39;22.30;99.20
15564;DHT22;7883;52.554;13.364;2023-05-10T13:35:07;22.40;99.30
15564;DHT22;7883;52.554;13.364;2023-05-10T13:37:34;22.40;97.60
15564;DHT22;7883;52.554;13.364;2023-05-10T13:40:03;22.40;97.90
15564;DHT22;7883;52.554;13.364;2023-05-10T13:42:32;22.50;98.20
15564;DHT22;7883;52.554;13.364;2023-05-10T13:45:00;22.50;98.20
15564;DHT22;7883;52.554;13.364;2023-05-10T13:47:27;22.20;98.50
15564;DHT22;7883;52.554;13.364;2023-05-10T13:49:54;21.90;98.50
15564;DHT22;7883;52.554;13.364;2023-05-10T13:52:21;22.00;98.40
15564;DHT22;7883;52.554;13.364;2023-05-10T13:54:48;22.00;98.80
15564;DHT22;7883;52.554;13.364;2023-05-10T13:57:17;22.10;98.60
15564;DHT22;7883;52.554;13.364;2023-05-10T13:59:46;22.20;98.90
15564;DHT22;7883;52.554;13.364;2023-05-10T14:02:13;22.30;98.70
15564;DHT22;7883;52.554;13.364;2023-05-10T14:04:40;22.40;98.70
15564;DHT22;7883;52.554;13.364;2023-05-10T14:07:07;22.60;98.60
15564;DHT22;7883;52.554;13.364;2023-05-10T14:09:34;22.60;98.20
15564;DHT22;7883;52.554;13.364;2023-05-10T14:12:01;22.50;97.70
15564;DHT22;7883;52.554;13.364;2023-05-10T14:14:28;22.40;97.30
15564;DHT22;7883;52.554;13.364;2023-05-10T14:16:56;22.50;97.30
15564;DHT22;7883;52.554;13.364;2023-05-10T14:19:23;22.60;96.30
15564;DHT22;7883;52.554;13.364;2023-05-10T14:21:50;22.60;96.90
15564;DHT22;7883;52.554;13.364;2023-05-10T14:24:18;22.70;96.30
15564;DHT22;7883;52.554;13.364;2023-05-10T14:26:44;22.60;96.80
15564;DHT22;7883;52.554;13.364;2023-05-10T14:29:11;22.60;96.90
15564;DHT22;7883;52.554;13.364;2023-05-10T14:31:39;22.60;97.10
15564;DHT22;7883;52.554;13.364;2023-05-10T14:34:07;22.60;97.40
15564;DHT22;7883;52.554;13.364;2023-05-10T14:36:34;22.60;97.60
15564;DHT22;7883;52.554;13.364;2023-05-10T14:39:01;22.60;97.30
15564;DHT22;7883;52.554;13.364;2023-05-10T14:41:29;22.60;97.40
15564;DHT22;7883;52.554;13.364;2023-05-10T14:43:55;22.50;96.30
15564;DHT22;7883;52.554;13.364;2023-05-10T14:46:22;22.60;97.00
15564;DHT22;7883;52.554;13.364;2023-05-10T14:48:49;22.60;96.50
15564;DHT22;7883;52.554;13.364;2023-05-10T14:51:18;22.60;95.70
15564;DHT22;7883;52.554;13.364;2023-05-10T14:53:47;22.60;95.50
15564;DHT22;7883;52.554;13.364;2023-05-10T14:56:14;22.60;95.20
15564;DHT22;7883;52.554;13.364;2023-05-10T14:58:41;22.50;95.80
15564;DHT22;7883;52.554;13.364;2023-05-10T15:01:08;22.50;96.40
15564;DHT22;7883;52.554;13.364;2023-05-10T15:03:35;22.50;96.70
15564;DHT22;7883;52.554;13.364;2023-05-10T15:06:01;22.50;96.40
15564;DHT22;7883;52.554;13.364;2023-05-10T15:08:30;22.30;96.60
15564;DHT22;7883;52.554;13.364;2023-05-10T15:10:57;22.00;96.70
15564;DHT22;7883;52.554;13.364;2023-05-10T15:13:23;22.00;96.80
15564;DHT22;7883;52.554;13.364;2023-05-10T15:15:50;22.10;96.70
15564;DHT22;7883;52.554;13.364;2023-05-10T15:18:17;22.10;96.50
15564;DHT22;7883;52.554;13.364;2023-05-10T15:20:44;22.20;96.70
15564;DHT22;7883;52.554;13.364;2023-05-10T15:23:11;22.30;96.50
15564;DHT22;7883;52.554;13.364;2023-05-10T15:25:39;22.20;96.90
15564;DHT22;7883;52.554;13.364;2023-05-10T15:28:06;22.10;96.90
15564;DHT22;7883;52.554;13.364;2023-05-10T15:30:33;22.00;97.40
15564;DHT22;7883;52.554;13.364;2023-05-10T15:33:00;21.90;97.40
15564;DHT22;7883;52.554;13.364;2023-05-10T15:35:27;21.90;97.40
15564;DHT22;7883;52.554;13.364;2023-05-10T15:37:54;21.80;97.60
15564;DHT22;7883;52.554;13.364;2023-05-10T15:40:21;21.70;97.40
15564;DHT22;7883;52.554;13.364;2023-05-10T15:42:49;21.60;97.50